sensor_id;sensor_type;location;lat;lon;timestamp;temperature;humidity
53422;DHT22;39319;52.944;5.928;2024-01-16T00:01:31;3.30;99.90
53422;DHT22;39319;52.944;5.928;2024-01-16T00:03:57;2.80;99.90
53422;DHT22;39319;52.944;5.928;2024-01-16T00:06:22;2.50;99.90
53422;DHT22;39319;52.944;5.928;2024-01-16T00:08:48;2.70;99.90
53422;DHT22;39319;52.944;5.928;2024-01-16T00:11:14;3.00;99.90
53422;DHT22;39319;52.944;5.928;2024-01-16T00:13:39;2.60;99.90
53422;DHT22;39319;52.944;5.928;2024-01-16T00:16:05;2.40;99.90
53422;DHT22;39319;52.944;5.928;2024-01-16T00:18:31;1.90;99.90
53422;DHT22;39319;52.944;5.928;2024-01-16T00:20:59;2.90;99.90
53422;DHT22;39319;52.944;5.928;2024-01-16T00:23:25;2.30;99.90
53422;DHT22;39319;52.944;5.928;2024-01-16T00:25:51;2.20;99.90
53422;DHT22;39319;52.944;5.928;2024-01-16T00:28:17;2.60;99.90
53422;DHT22;39319;52.944;5.928;2024-01-16T00:30:45;2.50;99.90
53422;DHT22;39319;52.944;5.928;2024-01-16T00:33:11;2.50;99.90
53422;DHT22;39319;52.944;5.928;2024-01-16T00:35:37;2.50;99.90
53422;DHT22;39319;52.944;5.928;2024-01-16T00:38:03;2.90;99.90
53422;DHT22;39319;52.944;5.928;2024-01-16T00:40:29;2.10;99.90
53422;DHT22;39319;52.944;5.928;2024-01-16T00:42:55;2.20;99.90
53422;DHT22;39319;52.944;5.928;2024-01-16T00:45:21;2.00;99.90
53422;DHT22;39319;52.944;5.928;2024-01-16T00:47:47;2.60;99.90
53422;DHT22;39319;52.944;5.928;2024-01-16T00:50:13;2.00;99.90
53422;DHT22;39319;52.944;5.928;2024-01-16T00:52:39;2.30;99.90
53422;DHT22;39319;52.944;5.928;2024-01-16T00:55:05;2.20;99.90
53422;DHT22;39319;52.944;5.928;2024-01-16T00:57:31;2.00;99.90
53422;DHT22;39319;52.944;5.928;2024-01-16T00:59:56;2.20;99.90
53422;DHT22;39319;52.944;5.928;2024-01-16T01:02:22;2.20;99.90
53422;DHT22;39319;52.944;5.928;2024-01-16T01:04:48;2.20;99.90
53422;DHT22;39319;52.944;5.928;2024-01-16T01:07:14;2.10;99.90
53422;DHT22;39319;52.944;5.928;2024-01-16T01:09:40;3.10;99.90
53422;DHT22;39319;52.944;5.928;2024-01-16T01:12:06;2.00;99.90
53422;DHT22;39319;52.944;5.928;2024-01-16T01:14:34;2.20;99.90
53422;DHT22;39319;52.944;5.928;2024-01-16T01:17:00;1.90;99.90
53422;DHT22;39319;52.944;5.928;2024-01-16T01:19:26;2.00;99.90
53422;DHT22;39319;52.944;5.928;2024-01-16T01:21:51;2.20;99.90
53422;DHT22;39319;52.944;5.928;2024-01-16T01:24:17;2.70;99.90
53422;DHT22;39319;52.944;5.928;2024-01-16T01:26:43;2.60;99.90
53422;DHT22;39319;52.944;5.928;2024-01-16T01:29:09;3.20;99.90
53422;DHT22;39319;52.944;5.928;2024-01-16T01:31:35;2.00;99.90
53422;DHT22;39319;52.944;5.928;2024-01-16T01:34:01;2.30;99.90
53422;DHT22;39319;52.944;5.928;2024-01-16T01:36:27;2.60;99.90
53422;DHT22;39319;52.944;5.928;2024-01-16T01:38:55;2.10;99.90
53422;DHT22;39319;52.944;5.928;2024-01-16T01:41:21;2.70;99.90
53422;DHT22;39319;52.944;5.928;2024-01-16T01:43:46;2.20;99.90
53422;DHT22;39319;52.944;5.928;2024-01-16T01:46:19;2.70;99.90
53422;DHT22;39319;52.944;5.928;2024-01-16T01:48:46;2.10;99.90
53422;DHT22;39319;52.944;5.928;2024-01-16T01:51:14;2.40;99.90
53422;DHT22;39319;52.944;5.928;2024-01-16T01:53:43;2.10;99.90
53422;DHT22;39319;52.944;5.928;2024-01-16T01:56:13;2.30;99.90
53422;DHT22;39319;52.944;5.928;2024-01-16T01:58:43;1.90;99.90
53422;DHT22;39319;52.944;5.928;2024-01-16T02:01:09;3.20;99.90
53422;DHT22;39319;52.944;5.928;2024-01-16T02:03:41;2.20;99.90
53422;DHT22;39319;52.944;5.928;2024-01-16T02:06:09;2.00;99.90
53422;DHT22;39319;52.944;5.928;2024-01-16T02:08:39;2.80;99.90
53422;DHT22;39319;52.944;5.928;2024-01-16T02:11:05;2.90;99.90
53422;DHT22;39319;52.944;5.928;2024-01-16T02:13:31;2.30;99.90
53422;DHT22;39319;52.944;5.928;2024-01-16T02:15:57;2.40;99.90
53422;DHT22;39319;52.944;5.928;2024-01-16T02:18:23;2.30;99.90
53422;DHT22;39319;52.944;5.928;2024-01-16T02:20:49;2.10;99.90
53422;DHT22;39319;52.944;5.928;2024-01-16T02:23:15;2.50;99.90
53422;DHT22;39319;52.944;5.928;2024-01-16T02:25:44;2.60;99.90
53422;DHT22;39319;52.944;5.928;2024-01-16T02:28:10;2.60;99.90
53422;DHT22;39319;52.944;5.928;2024-01-16T02:30:36;3.40;99.90
53422;DHT22;39319;52.944;5.928;2024-01-16T02:33:02;3.10;99.90
53422;DHT22;39319;52.944;5.928;2024-01-16T02:35:29;2.90;99.90
53422;DHT22;39319;52.944;5.928;2024-01-16T02:37:55;2.30;99.90
53422;DHT22;39319;52.944;5.928;2024-01-16T02:40:21;3.40;99.90
53422;DHT22;39319;52.944;5.928;2024-01-16T02:42:46;2.30;99.90
53422;DHT22;39319;52.944;5.928;2024-01-16T02:45:12;2.60;99.90
53422;DHT22;39319;52.944;5.928;2024-01-16T02:47:38;2.40;99.90
53422;DHT22;39319;52.944;5.928;2024-01-16T02:50:04;2.40;99.90
53422;DHT22;39319;52.944;5.928;2024-01-16T02:52:30;2.40;99.90
53422;DHT22;39319;52.944;5.928;2024-01-16T02:54:56;2.30;99.90
53422;DHT22;39319;52.944;5.928;2024-01-16T02:57:22;2.20;99.90
53422;DHT22;39319;52.944;5.928;2024-01-16T02:59:48;2.30;99.90
53422;DHT22;39319;52.944;5.928;2024-01-16T03:02:13;2.40;99.90
53422;DHT22;39319;52.944;5.928;2024-01-16T03:04:39;2.60;99.90
53422;DHT22;39319;52.944;5.928;2024-01-16T03:07:05;3.60;99.90
53422;DHT22;39319;52.944;5.928;2024-01-16T03:09:31;2.00;99.90
53422;DHT22;39319;52.944;5.928;2024-01-16T03:11:59;2.60;99.90
53422;DHT22;39319;52.944;5.928;2024-01-16T03:14:25;2.40;99.90
53422;DHT22;39319;52.944;5.928;2024-01-16T03:16:51;2.10;99.90
53422;DHT22;39319;52.944;5.928;2024-01-16T03:19:17;2.30;99.90
53422;DHT22;39319;52.944;5.928;2024-01-16T03:21:42;2.00;99.90
53422;DHT22;39319;52.944;5.928;2024-01-16T03:24:08;2.90;99.90
53422;DHT22;39319;52.944;5.928;2024-01-16T03:26:36;3.00;99.90
53422;DHT22;39319;52.944;5.928;2024-01-16T03:29:03;1.70;99.90
53422;DHT22;39319;52.944;5.928;2024-01-16T03:31:30;1.50;99.90
53422;DHT22;39319;52.944;5.928;2024-01-16T03:33:58;2.00;99.90
53422;DHT22;39319;52.944;5.928;2024-01-16T03:36:24;2.60;99.90
53422;DHT22;39319;52.944;5.928;2024-01-16T03:38:50;2.10;99.90
53422;DHT22;39319;52.944;5.928;2024-01-16T03:41:15;2.20;99.90
53422;DHT22;39319;52.944;5.928;2024-01-16T03:43:41;1.50;99.90
53422;DHT22;39319;52.944;5.928;2024-01-16T03:46:07;2.40;99.90
53422;DHT22;39319;52.944;5.928;2024-01-16T03:48:35;1.50;99.90
53422;DHT22;39319;52.944;5.928;2024-01-16T03:51:01;1.60;99.90
53422;DHT22;39319;52.944;5.928;2024-01-16T03:53:28;1.00;99.90
53422;DHT22;39319;52.944;5.928;2024-01-16T03:55:53;1.50;99.90
53422;DHT22;39319;52.944;5.928;2024-01-16T03:58:19;2.60;99.90
53422;DHT22;39319;52.944;5.928;2024-01-16T04:00:45;1.90;99.90
53422;DHT22;39319;52.944;5.928;2024-01-16T04:03:11;1.80;99.90
53422;DHT22;39319;52.944;5.928;2024-01-16T04:05:38;1.70;99.90
53422;DHT22;39319;52.944;5.928;2024-01-16T04:08:06;2.70;99.90
53422;DHT22;39319;52.944;5.928;2024-01-16T04:10:32;1.70;99.90
53422;DHT22;39319;52.944;5.928;2024-01-16T04:13:00;2.40;99.90
53422;DHT22;39319;52.944;5.928;2024-01-16T04:15:27;1.60;99.90
53422;DHT22;39319;52.944;5.928;2024-01-16T04:17:52;1.60;99.90
53422;DHT22;39319;52.944;5.928;2024-01-16T04:20:18;1.60;99.90
53422;DHT22;39319;52.944;5.928;2024-01-16T04:22:44;3.10;99.90
53422;DHT22;39319;52.944;5.928;2024-01-16T04:25:10;1.90;99.90
53422;DHT22;39319;52.944;5.928;2024-01-16T04:27:36;2.00;99.90
53422;DHT22;39319;52.944;5.928;2024-01-16T04:30:01;2.00;99.90
53422;DHT22;39319;52.944;5.928;2024-01-16T04:32:27;1.60;99.90
53422;DHT22;39319;52.944;5.928;2024-01-16T04:34:53;1.90;99.90
53422;DHT22;39319;52.944;5.928;2024-01-16T04:37:19;2.20;99.90
53422;DHT22;39319;52.944;5.928;2024-01-16T04:39:44;2.40;99.90
53422;DHT22;39319;52.944;5.928;2024-01-16T04:42:10;1.50;99.90
53422;DHT22;39319;52.944;5.928;2024-01-16T04:44:37;2.10;99.90
53422;DHT22;39319;52.944;5.928;2024-01-16T04:47:05;1.30;99.90
53422;DHT22;39319;52.944;5.928;2024-01-16T04:49:30;2.10;99.90
53422;DHT22;39319;52.944;5.928;2024-01-16T04:51:56;2.30;99.90
53422;DHT22;39319;52.944;5.928;2024-01-16T04:54:22;2.20;99.90
53422;DHT22;39319;52.944;5.928;2024-01-16T04:56:47;2.50;99.90
53422;DHT22;39319;52.944;5.928;2024-01-16T04:59:13;2.10;99.90
53422;DHT22;39319;52.944;5.928;2024-01-16T05:01:39;1.80;99.90
53422;DHT22;39319;52.944;5.928;2024-01-16T05:04:05;2.20;99.90
53422;DHT22;39319;52.944;5.928;2024-01-16T05:06:34;2.60;99.90
53422;DHT22;39319;52.944;5.928;2024-01-16T05:08:59;1.80;99.90
53422;DHT22;39319;52.944;5.928;2024-01-16T05:11:25;2.20;99.90
53422;DHT22;39319;52.944;5.928;2024-01-16T05:13:51;2.90;99.90
53422;DHT22;39319;52.944;5.928;2024-01-16T05:16:24;3.30;99.90
53422;DHT22;39319;52.944;5.928;2024-01-16T05:18:50;2.40;99.90
53422;DHT22;39319;52.944;5.928;2024-01-16T05:21:16;2.90;99.90
53422;DHT22;39319;52.944;5.928;2024-01-16T05:23:41;2.20;99.90
53422;DHT22;39319;52.944;5.928;2024-01-16T05:26:07;2.00;99.90
53422;DHT22;39319;52.944;5.928;2024-01-16T05:28:33;2.00;99.90
53422;DHT22;39319;52.944;5.928;2024-01-16T05:30:59;3.00;99.90
53422;DHT22;39319;52.944;5.928;2024-01-16T05:33:25;2.20;99.90
53422;DHT22;39319;52.944;5.928;2024-01-16T05:35:51;2.30;99.90
53422;DHT22;39319;52.944;5.928;2024-01-16T05:38:16;3.30;99.90
53422;DHT22;39319;52.944;5.928;2024-01-16T05:40:42;2.50;99.90
53422;DHT22;39319;52.944;5.928;2024-01-16T05:43:08;2.80;99.90
53422;DHT22;39319;52.944;5.928;2024-01-16T05:45:33;2.50;99.90
53422;DHT22;39319;52.944;5.928;2024-01-16T05:47:59;3.40;99.90
53422;DHT22;39319;52.944;5.928;2024-01-16T05:50:25;2.60;99.90
53422;DHT22;39319;52.944;5.928;2024-01-16T05:52:51;2.80;99.90
53422;DHT22;39319;52.944;5.928;2024-01-16T05:55:16;2.80;99.90
53422;DHT22;39319;52.944;5.928;2024-01-16T05:57:42;2.90;99.90
53422;DHT22;39319;52.944;5.928;2024-01-16T06:00:09;2.50;99.90
53422;DHT22;39319;52.944;5.928;2024-01-16T06:02:35;2.20;99.90
53422;DHT22;39319;52.944;5.928;2024-01-16T06:05:01;2.60;99.90
53422;DHT22;39319;52.944;5.928;2024-01-16T06:07:28;1.90;99.90
53422;DHT22;39319;52.944;5.928;2024-01-16T06:09:58;3.20;99.90
53422;DHT22;39319;52.944;5.928;2024-01-16T06:12:24;3.00;99.90
53422;DHT22;39319;52.944;5.928;2024-01-16T06:14:50;2.40;99.90
53422;DHT22;39319;52.944;5.928;2024-01-16T06:17:15;3.20;99.90
53422;DHT22;39319;52.944;5.928;2024-01-16T06:19:41;2.80;99.90
53422;DHT22;39319;52.944;5.928;2024-01-16T06:22:07;3.30;99.90
53422;DHT22;39319;52.944;5.928;2024-01-16T06:24:34;2.80;99.90
53422;DHT22;39319;52.944;5.928;2024-01-16T06:27:05;2.60;99.90
53422;DHT22;39319;52.944;5.928;2024-01-16T06:29:31;2.60;99.90
53422;DHT22;39319;52.944;5.928;2024-01-16T06:31:57;2.50;99.90
53422;DHT22;39319;52.944;5.928;2024-01-16T06:34:23;2.40;99.90
53422;DHT22;39319;52.944;5.928;2024-01-16T06:36:49;2.50;99.90
53422;DHT22;39319;52.944;5.928;2024-01-16T06:39:14;3.00;99.90
53422;DHT22;39319;52.944;5.928;2024-01-16T06:41:41;3.30;99.90
53422;DHT22;39319;52.944;5.928;2024-01-16T06:44:07;2.40;99.90
53422;DHT22;39319;52.944;5.928;2024-01-16T06:46:32;3.60;99.90
53422;DHT22;39319;52.944;5.928;2024-01-16T06:48:58;2.40;99.90
53422;DHT22;39319;52.944;5.928;2024-01-16T06:51:24;3.10;99.90
53422;DHT22;39319;52.944;5.928;2024-01-16T06:53:49;2.50;99.90
53422;DHT22;39319;52.944;5.928;2024-01-16T06:56:15;2.90;99.90
53422;DHT22;39319;52.944;5.928;2024-01-16T06:58:41;3.10;99.90
53422;DHT22;39319;52.944;5.928;2024-01-16T07:01:09;2.80;99.90
53422;DHT22;39319;52.944;5.928;2024-01-16T07:03:35;3.00;99.90
53422;DHT22;39319;52.944;5.928;2024-01-16T07:06:00;2.50;99.90
53422;DHT22;39319;52.944;5.928;2024-01-16T07:08:26;3.00;99.90
53422;DHT22;39319;52.944;5.928;2024-01-16T07:10:52;3.30;99.90
53422;DHT22;39319;52.944;5.928;2024-01-16T07:13:19;3.10;99.90
53422;DHT22;39319;52.944;5.928;2024-01-16T07:15:44;2.50;99.90
53422;DHT22;39319;52.944;5.928;2024-01-16T07:18:10;2.80;99.90
53422;DHT22;39319;52.944;5.928;2024-01-16T07:20:36;2.70;99.90
53422;DHT22;39319;52.944;5.928;2024-01-16T07:23:02;2.70;99.90
53422;DHT22;39319;52.944;5.928;2024-01-16T07:25:28;2.70;99.90
53422;DHT22;39319;52.944;5.928;2024-01-16T07:27:54;3.30;99.90
53422;DHT22;39319;52.944;5.928;2024-01-16T07:30:22;2.50;99.90
53422;DHT22;39319;52.944;5.928;2024-01-16T07:32:48;3.30;99.90
53422;DHT22;39319;52.944;5.928;2024-01-16T07:35:14;2.60;99.90
53422;DHT22;39319;52.944;5.928;2024-01-16T07:41:05;2.50;99.90
53422;DHT22;39319;52.944;5.928;2024-01-16T07:43:31;2.50;99.90
53422;DHT22;39319;52.944;5.928;2024-01-16T07:45:57;3.50;99.90
53422;DHT22;39319;52.944;5.928;2024-01-16T07:48:23;3.00;99.90
53422;DHT22;39319;52.944;5.928;2024-01-16T07:50:49;2.60;99.90
53422;DHT22;39319;52.944;5.928;2024-01-16T07:53:15;3.00;99.90
53422;DHT22;39319;52.944;5.928;2024-01-16T07:55:41;2.70;99.90
53422;DHT22;39319;52.944;5.928;2024-01-16T07:58:07;2.80;99.90
53422;DHT22;39319;52.944;5.928;2024-01-16T08:00:33;2.40;99.90
53422;DHT22;39319;52.944;5.928;2024-01-16T08:02:59;2.80;99.90
53422;DHT22;39319;52.944;5.928;2024-01-16T08:05:24;2.90;99.90
53422;DHT22;39319;52.944;5.928;2024-01-16T08:07:58;3.20;99.90
53422;DHT22;39319;52.944;5.928;2024-01-16T08:10:24;2.60;99.90
53422;DHT22;39319;52.944;5.928;2024-01-16T08:12:50;2.70;99.90
53422;DHT22;39319;52.944;5.928;2024-01-16T08:15:18;2.20;99.90
53422;DHT22;39319;52.944;5.928;2024-01-16T08:17:44;2.20;99.90
53422;DHT22;39319;52.944;5.928;2024-01-16T08:20:10;2.60;99.90
53422;DHT22;39319;52.944;5.928;2024-01-16T08:22:36;2.70;99.90
53422;DHT22;39319;52.944;5.928;2024-01-16T08:25:02;2.90;99.90
53422;DHT22;39319;52.944;5.928;2024-01-16T08:27:30;2.60;99.90
53422;DHT22;39319;52.944;5.928;2024-01-16T08:29:56;3.30;99.90
53422;DHT22;39319;52.944;5.928;2024-01-16T08:32:22;2.80;99.90
53422;DHT22;39319;52.944;5.928;2024-01-16T08:34:47;2.30;99.90
53422;DHT22;39319;52.944;5.928;2024-01-16T08:37:13;2.60;99.90
53422;DHT22;39319;52.944;5.928;2024-01-16T08:39:39;2.70;99.90
53422;DHT22;39319;52.944;5.928;2024-01-16T08:42:05;2.60;99.90
53422;DHT22;39319;52.944;5.928;2024-01-16T08:44:38;2.20;99.90
53422;DHT22;39319;52.944;5.928;2024-01-16T08:47:05;2.60;99.90
53422;DHT22;39319;52.944;5.928;2024-01-16T08:49:32;2.60;99.90
53422;DHT22;39319;52.944;5.928;2024-01-16T08:51:58;4.30;99.90
53422;DHT22;39319;52.944;5.928;2024-01-16T08:54:24;3.70;99.90
53422;DHT22;39319;52.944;5.928;2024-01-16T08:56:54;2.50;99.90
53422;DHT22;39319;52.944;5.928;2024-01-16T08:59:20;2.70;99.90
53422;DHT22;39319;52.944;5.928;2024-01-16T09:01:46;2.50;99.90
53422;DHT22;39319;52.944;5.928;2024-01-16T09:04:12;2.90;99.90
53422;DHT22;39319;52.944;5.928;2024-01-16T09:06:38;3.30;99.90
53422;DHT22;39319;52.944;5.928;2024-01-16T09:09:04;3.20;99.90
53422;DHT22;39319;52.944;5.928;2024-01-16T09:11:30;2.90;99.90
53422;DHT22;39319;52.944;5.928;2024-01-16T09:13:57;2.40;99.90
53422;DHT22;39319;52.944;5.928;2024-01-16T09:16:23;2.90;99.90
53422;DHT22;39319;52.944;5.928;2024-01-16T09:18:51;2.90;99.90
53422;DHT22;39319;52.944;5.928;2024-01-16T09:21:17;3.30;99.90
53422;DHT22;39319;52.944;5.928;2024-01-16T09:23:43;3.30;99.90
53422;DHT22;39319;52.944;5.928;2024-01-16T09:26:09;2.90;99.90
53422;DHT22;39319;52.944;5.928;2024-01-16T09:28:36;2.60;99.90
53422;DHT22;39319;52.944;5.928;2024-01-16T09:31:01;3.40;99.90
53422;DHT22;39319;52.944;5.928;2024-01-16T09:33:27;2.60;99.90
53422;DHT22;39319;52.944;5.928;2024-01-16T09:35:53;3.00;99.90
53422;DHT22;39319;52.944;5.928;2024-01-16T09:38:19;3.10;99.90
53422;DHT22;39319;52.944;5.928;2024-01-16T09:40:45;2.90;99.90
53422;DHT22;39319;52.944;5.928;2024-01-16T09:43:12;2.90;99.90
53422;DHT22;39319;52.944;5.928;2024-01-16T09:45:38;3.60;99.90
53422;DHT22;39319;52.944;5.928;2024-01-16T09:48:05;3.40;99.90
53422;DHT22;39319;52.944;5.928;2024-01-16T09:50:31;3.30;99.90
53422;DHT22;39319;52.944;5.928;2024-01-16T09:52:57;3.40;99.90
53422;DHT22;39319;52.944;5.928;2024-01-16T09:55:24;3.40;99.90
53422;DHT22;39319;52.944;5.928;2024-01-16T09:57:52;3.30;99.90
53422;DHT22;39319;52.944;5.928;2024-01-16T10:00:19;3.70;99.90
53422;DHT22;39319;52.944;5.928;2024-01-16T10:02:45;3.40;99.90
53422;DHT22;39319;52.944;5.928;2024-01-16T10:05:12;3.40;99.90
53422;DHT22;39319;52.944;5.928;2024-01-16T10:07:41;3.60;99.90
53422;DHT22;39319;52.944;5.928;2024-01-16T10:10:09;3.80;99.90
53422;DHT22;39319;52.944;5.928;2024-01-16T10:12:38;3.40;99.90
53422;DHT22;39319;52.944;5.928;2024-01-16T10:15:09;3.80;99.90
53422;DHT22;39319;52.944;5.928;2024-01-16T10:17:42;3.40;99.90
53422;DHT22;39319;52.944;5.928;2024-01-16T10:20:11;3.10;99.90
53422;DHT22;39319;52.944;5.928;2024-01-16T10:22:52;3.70;99.90
53422;DHT22;39319;52.944;5.928;2024-01-16T10:25:18;3.50;99.90
53422;DHT22;39319;52.944;5.928;2024-01-16T10:27:47;3.00;99.90
53422;DHT22;39319;52.944;5.928;2024-01-16T10:30:13;3.10;99.90
53422;DHT22;39319;52.944;5.928;2024-01-16T10:32:40;3.80;99.90
53422;DHT22;39319;52.944;5.928;2024-01-16T10:35:07;3.10;99.90
53422;DHT22;39319;52.944;5.928;2024-01-16T10:37:54;2.90;99.90
53422;DHT22;39319;52.944;5.928;2024-01-16T10:40:20;2.90;99.90
53422;DHT22;39319;52.944;5.928;2024-01-16T10:45:22;3.50;99.90
53422;DHT22;39319;52.944;5.928;2024-01-16T10:47:49;3.00;99.90
53422;DHT22;39319;52.944;5.928;2024-01-16T10:50:26;2.60;99.90
53422;DHT22;39319;52.944;5.928;2024-01-16T10:52:55;3.00;99.90
53422;DHT22;39319;52.944;5.928;2024-01-16T10:55:24;2.40;99.90
53422;DHT22;39319;52.944;5.928;2024-01-16T10:57:50;3.00;99.90
53422;DHT22;39319;52.944;5.928;2024-01-16T11:00:21;2.20;99.90
53422;DHT22;39319;52.944;5.928;2024-01-16T11:03:05;3.00;99.90
53422;DHT22;39319;52.944;5.928;2024-01-16T11:05:32;3.10;99.90
53422;DHT22;39319;52.944;5.928;2024-01-16T11:08:01;3.20;99.90
53422;DHT22;39319;52.944;5.928;2024-01-16T11:10:28;2.90;99.90
53422;DHT22;39319;52.944;5.928;2024-01-16T11:12:54;2.80;99.90
53422;DHT22;39319;52.944;5.928;2024-01-16T11:15:21;3.20;99.90
53422;DHT22;39319;52.944;5.928;2024-01-16T11:17:47;2.90;99.90
53422;DHT22;39319;52.944;5.928;2024-01-16T11:20:15;2.70;99.90
53422;DHT22;39319;52.944;5.928;2024-01-16T11:22:45;3.20;99.90
53422;DHT22;39319;52.944;5.928;2024-01-16T11:25:14;2.90;99.90
53422;DHT22;39319;52.944;5.928;2024-01-16T11:27:44;3.20;99.90
53422;DHT22;39319;52.944;5.928;2024-01-16T11:30:11;3.60;99.90
53422;DHT22;39319;52.944;5.928;2024-01-16T11:32:41;2.80;99.90
53422;DHT22;39319;52.944;5.928;2024-01-16T11:35:08;3.20;99.90
53422;DHT22;39319;52.944;5.928;2024-01-16T11:37:35;3.80;99.90
53422;DHT22;39319;52.944;5.928;2024-01-16T11:42:47;3.20;99.90
53422;DHT22;39319;52.944;5.928;2024-01-16T11:50:35;3.00;99.90
53422;DHT22;39319;52.944;5.928;2024-01-16T11:53:01;3.20;99.90
53422;DHT22;39319;52.944;5.928;2024-01-16T11:55:28;3.20;99.90
53422;DHT22;39319;52.944;5.928;2024-01-16T12:00:49;3.60;99.90
53422;DHT22;39319;52.944;5.928;2024-01-16T12:03:21;3.00;99.90
53422;DHT22;39319;52.944;5.928;2024-01-16T12:05:57;3.10;99.90
53422;DHT22;39319;52.944;5.928;2024-01-16T12:08:23;3.30;99.90
53422;DHT22;39319;52.944;5.928;2024-01-16T12:10:49;3.00;99.90
53422;DHT22;39319;52.944;5.928;2024-01-16T12:13:15;3.40;99.90
53422;DHT22;39319;52.944;5.928;2024-01-16T12:15:41;3.90;99.90
53422;DHT22;39319;52.944;5.928;2024-01-16T12:18:08;3.40;99.90
53422;DHT22;39319;52.944;5.928;2024-01-16T12:20:35;3.80;99.90
53422;DHT22;39319;52.944;5.928;2024-01-16T12:23:06;4.00;99.90
53422;DHT22;39319;52.944;5.928;2024-01-16T12:25:37;4.40;99.90
53422;DHT22;39319;52.944;5.928;2024-01-16T12:28:07;4.10;99.90
53422;DHT22;39319;52.944;5.928;2024-01-16T12:30:37;4.90;99.90
53422;DHT22;39319;52.944;5.928;2024-01-16T12:33:13;4.90;99.90
53422;DHT22;39319;52.944;5.928;2024-01-16T12:35:41;5.60;99.90
53422;DHT22;39319;52.944;5.928;2024-01-16T12:38:11;6.00;99.70
53422;DHT22;39319;52.944;5.928;2024-01-16T12:40:51;6.40;99.40
53422;DHT22;39319;52.944;5.928;2024-01-16T12:43:18;6.70;98.40
53422;DHT22;39319;52.944;5.928;2024-01-16T12:45:44;7.50;97.80
53422;DHT22;39319;52.944;5.928;2024-01-16T12:48:10;6.60;97.10
53422;DHT22;39319;52.944;5.928;2024-01-16T12:50:37;7.60;96.50
53422;DHT22;39319;52.944;5.928;2024-01-16T12:55:31;7.60;95.70
53422;DHT22;39319;52.944;5.928;2024-01-16T12:58:15;7.50;95.60
53422;DHT22;39319;52.944;5.928;2024-01-16T13:00:42;7.10;94.80
53422;DHT22;39319;52.944;5.928;2024-01-16T13:03:21;7.00;94.60
53422;DHT22;39319;52.944;5.928;2024-01-16T13:05:55;7.30;93.70
53422;DHT22;39319;52.944;5.928;2024-01-16T13:08:21;7.60;94.40
53422;DHT22;39319;52.944;5.928;2024-01-16T13:11:02;7.30;93.80
53422;DHT22;39319;52.944;5.928;2024-01-16T13:13:29;6.80;94.10
53422;DHT22;39319;52.944;5.928;2024-01-16T13:15:55;6.40;94.30
53422;DHT22;39319;52.944;5.928;2024-01-16T13:18:27;6.10;94.60
53422;DHT22;39319;52.944;5.928;2024-01-16T13:20:54;6.20;94.90
53422;DHT22;39319;52.944;5.928;2024-01-16T13:23:21;6.00;95.20
53422;DHT22;39319;52.944;5.928;2024-01-16T13:25:49;5.70;95.50
53422;DHT22;39319;52.944;5.928;2024-01-16T13:28:19;5.60;95.80
53422;DHT22;39319;52.944;5.928;2024-01-16T13:30:46;5.30;96.30
53422;DHT22;39319;52.944;5.928;2024-01-16T13:33:13;5.10;96.70
53422;DHT22;39319;52.944;5.928;2024-01-16T13:35:41;4.80;97.20
53422;DHT22;39319;52.944;5.928;2024-01-16T13:38:07;4.80;97.50
53422;DHT22;39319;52.944;5.928;2024-01-16T13:40:35;4.30;97.80
53422;DHT22;39319;52.944;5.928;2024-01-16T13:43:01;4.40;98.10
53422;DHT22;39319;52.944;5.928;2024-01-16T13:45:28;4.40;98.30
53422;DHT22;39319;52.944;5.928;2024-01-16T13:47:57;4.30;98.20
53422;DHT22;39319;52.944;5.928;2024-01-16T13:50:23;5.20;98.40
53422;DHT22;39319;52.944;5.928;2024-01-16T13:52:50;4.60;98.60
53422;DHT22;39319;52.944;5.928;2024-01-16T13:55:16;5.50;98.90
53422;DHT22;39319;52.944;5.928;2024-01-16T13:57:41;5.30;98.30
53422;DHT22;39319;52.944;5.928;2024-01-16T14:00:10;5.00;97.60
53422;DHT22;39319;52.944;5.928;2024-01-16T14:02:46;6.10;97.50
53422;DHT22;39319;52.944;5.928;2024-01-16T14:05:13;6.00;97.20
53422;DHT22;39319;52.944;5.928;2024-01-16T14:07:48;6.10;96.50
53422;DHT22;39319;52.944;5.928;2024-01-16T14:10:16;6.30;96.60
53422;DHT22;39319;52.944;5.928;2024-01-16T14:12:43;5.60;96.30
53422;DHT22;39319;52.944;5.928;2024-01-16T14:15:11;5.60;96.50
53422;DHT22;39319;52.944;5.928;2024-01-16T14:17:48;5.80;96.50
53422;DHT22;39319;52.944;5.928;2024-01-16T14:20:15;4.80;96.50
53422;DHT22;39319;52.944;5.928;2024-01-16T14:22:41;5.00;97.00
53422;DHT22;39319;52.944;5.928;2024-01-16T14:25:11;4.80;97.30
53422;DHT22;39319;52.944;5.928;2024-01-16T14:27:42;5.10;97.70
53422;DHT22;39319;52.944;5.928;2024-01-16T14:30:12;4.80;97.70
53422;DHT22;39319;52.944;5.928;2024-01-16T14:32:43;4.40;97.80
53422;DHT22;39319;52.944;5.928;2024-01-16T14:35:10;4.50;98.20
53422;DHT22;39319;52.944;5.928;2024-01-16T14:37:37;4.80;98.30
53422;DHT22;39319;52.944;5.928;2024-01-16T14:40:04;4.60;98.70
53422;DHT22;39319;52.944;5.928;2024-01-16T14:42:49;4.30;98.60
53422;DHT22;39319;52.944;5.928;2024-01-16T14:45:17;4.30;98.10
53422;DHT22;39319;52.944;5.928;2024-01-16T14:47:43;4.20;98.50
53422;DHT22;39319;52.944;5.928;2024-01-16T14:50:11;4.50;98.40
53422;DHT22;39319;52.944;5.928;2024-01-16T14:52:38;4.80;98.40
53422;DHT22;39319;52.944;5.928;2024-01-16T14:55:06;4.60;98.00
53422;DHT22;39319;52.944;5.928;2024-01-16T14:57:35;4.50;98.10
53422;DHT22;39319;52.944;5.928;2024-01-16T15:00:15;4.20;98.10
53422;DHT22;39319;52.944;5.928;2024-01-16T15:02:47;4.00;97.90
53422;DHT22;39319;52.944;5.928;2024-01-16T15:05:17;4.00;97.60
53422;DHT22;39319;52.944;5.928;2024-01-16T15:07:45;4.00;98.10
53422;DHT22;39319;52.944;5.928;2024-01-16T15:10:11;4.60;98.50
53422;DHT22;39319;52.944;5.928;2024-01-16T15:12:38;4.50;98.60
53422;DHT22;39319;52.944;5.928;2024-01-16T15:15:06;3.70;98.40
53422;DHT22;39319;52.944;5.928;2024-01-16T15:17:33;4.00;98.40
53422;DHT22;39319;52.944;5.928;2024-01-16T15:19:58;3.70;98.70
53422;DHT22;39319;52.944;5.928;2024-01-16T15:22:24;4.00;98.90
53422;DHT22;39319;52.944;5.928;2024-01-16T15:24:50;3.90;99.00
53422;DHT22;39319;52.944;5.928;2024-01-16T15:27:16;4.30;99.20
53422;DHT22;39319;52.944;5.928;2024-01-16T15:29:42;3.60;99.00
53422;DHT22;39319;52.944;5.928;2024-01-16T15:32:07;3.10;98.90
53422;DHT22;39319;52.944;5.928;2024-01-16T15:34:33;4.30;99.30
53422;DHT22;39319;52.944;5.928;2024-01-16T15:37:00;4.30;99.20
53422;DHT22;39319;52.944;5.928;2024-01-16T15:39:25;3.80;99.10
53422;DHT22;39319;52.944;5.928;2024-01-16T15:41:51;3.60;98.90
53422;DHT22;39319;52.944;5.928;2024-01-16T15:44:17;4.00;98.70
53422;DHT22;39319;52.944;5.928;2024-01-16T15:46:58;3.50;98.30
53422;DHT22;39319;52.944;5.928;2024-01-16T15:49:25;3.60;98.10
53422;DHT22;39319;52.944;5.928;2024-01-16T15:51:52;3.50;97.90
53422;DHT22;39319;52.944;5.928;2024-01-16T15:54:18;3.50;98.20
53422;DHT22;39319;52.944;5.928;2024-01-16T15:56:44;3.00;97.90
53422;DHT22;39319;52.944;5.928;2024-01-16T15:59:10;3.50;97.90
53422;DHT22;39319;52.944;5.928;2024-01-16T16:01:40;4.00;98.00
53422;DHT22;39319;52.944;5.928;2024-01-16T16:04:06;4.40;98.40